This is the latest recevied weather packets stored in our database for station/object LRBM. If no packets are shown the sender has not sent any weather packets the latest 10 day(s).
| Time | Temp. | Humidity | Pressure | Rain* | Wind** | Luminosity | Snow |
|---|---|---|---|---|---|---|---|
| 1777494816 | 6.11° C | 49% | 1022 hPa | - | - | - | - |
| 1777491215 | 7.78° C | 40% | 1021 hPa | - | - | - | - |
| 1777490315 | 10° C | 35% | 1021 hPa | - | - | - | - |
| 1777487615 | 10° C | 35% | 1021 hPa | - | - | - | - |
| 1777486716 | 11.11° C | 32% | 1020 hPa | - | - | - | - |
| 1777485815 | 11.11° C | 32% | 1020 hPa | - | - | - | - |
| 1777484015 | 12.22° C | 30% | 1019 hPa | - | - | - | - |
| 1777483115 | 12.78° C | 28% | 1019 hPa | - | - | - | - |
| 1777482215 | 12.78° C | 28% | 1019 hPa | - | - | - | - |
| 1777481315 | 13.89° C | 25% | 1019 hPa | - | - | - | - |
| 1777480415 | 13.89° C | 25% | 1019 hPa | - | - | - | - |
| 1777479518 | 13.89° C | 25% | 1018 hPa | - | - | - | - |
| 1777476816 | 15° C | 23% | 1018 hPa | - | - | - | - |
| 1777475916 | 16.11° C | 20% | 1018 hPa | - | - | - | - |
| 1777474116 | 16.11° C | 19% | 1018 hPa | - | - | - | - |
| 1777473215 | 16.11° C | 19% | 1018 hPa | - | - | - | - |
| 1777472315 | 16.11° C | 20% | 1018 hPa | - | - | - | - |
| 1777471416 | 16.11° C | 20% | 1018 hPa | - | - | - | - |
| 1777469616 | 16.11° C | 20% | 1018 hPa | - | - | - | - |
| 1777468716 | 16.11° C | 19% | 1018 hPa | - | - | - | - |
| 1777467815 | 16.11° C | 19% | 1018 hPa | - | - | - | - |
| 1777465116 | 16.11° C | 20% | 1018 hPa | - | - | - | - |
| 1777464215 | 16.11° C | 20% | 1018 hPa | - | - | - | - |
| 1777462415 | 16.11° C | 22% | 1019 hPa | - | - | - | - |
| 1777461515 | 15° C | 23% | 1019 hPa | - | - | - | - |
* Rain since midnight (hover to see other rain measurements)
** Current wind speed in m/s (hover to see current wind gust speed)